Time;durP1;ratioP1;P1;durP2;ratioP2;P2;SDS_P1;SDS_P2;PMS_P1;PMS_P2;Temp;Humidity;BMP_temperature;BMP_pressure;BME280_temperature;BME280_humidity;BME280_pressure;Samples;Min_cycle;Max_cycle;Signal;HPM_P1;HPM_P2
2023/02/18 00:02:11;;;;;;;50.65;18.20;;;;;;;1.55;93.08;99834.04;1616898;88;21471;-68
2023/02/18 00:04:41;;;;;;;50.78;19.67;;;;;;;1.57;93.17;99828.83;1616768;89;21488;-69
2023/02/18 00:07:11;;;;;;;50.28;19.42;;;;;;;1.61;93.15;99825.83;1616931;89;21574;-69
2023/02/18 00:09:42;;;;;;;47.98;18.82;;;;;;;1.62;93.15;99813.52;1617127;88;21499;-69
2023/02/18 00:12:11;;;;;;;52.15;18.98;;;;;;;1.64;93.18;99803.91;1617137;89;21059;-73
2023/02/18 00:14:42;;;;;;;50.83;19.12;;;;;;;1.64;93.16;99798.52;1617253;89;21048;-72
2023/02/18 00:17:10;;;;;;;52.25;19.10;;;;;;;1.61;93.26;99791.57;1617132;89;21514;-72
2023/02/18 00:19:40;;;;;;;48.30;18.85;;;;;;;1.63;93.35;99777.42;1616994;89;21051;-71
2023/02/18 00:22:09;;;;;;;48.90;18.67;;;;;;;1.65;93.43;99775.91;1616958;89;21584;-70
2023/02/18 00:24:38;;;;;;;53.35;20.30;;;;;;;1.66;93.55;99772.20;1616851;89;21500;-67
2023/02/18 00:27:06;;;;;;;53.45;19.73;;;;;;;1.66;93.62;99768.16;1616145;88;21180;-68
2023/02/18 00:29:35;;;;;;;54.40;20.00;;;;;;;1.66;93.72;99760.05;1624039;88;21142;-67
2023/02/18 00:32:05;;;;;;;57.17;20.40;;;;;;;1.68;93.87;99747.25;1660797;86;21097;-68
2023/02/18 00:34:35;;;;;;;54.85;19.15;;;;;;;1.70;93.99;99735.78;1660760;86;21503;-67
2023/02/18 00:37:04;;;;;;;53.33;19.80;;;;;;;1.71;94.13;99729.38;1660773;86;21023;-66
2023/02/18 00:39:33;;;;;;;48.75;19.25;;;;;;;1.72;94.27;99717.07;1660755;86;21606;-67
2023/02/18 00:42:03;;;;;;;55.40;19.85;;;;;;;1.73;94.35;99712.02;1660717;86;21063;-67
2023/02/18 00:44:32;;;;;;;50.92;19.15;;;;;;;1.73;94.38;99701.72;1660648;86;21232;-68
2023/02/18 00:47:01;;;;;;;50.48;19.35;;;;;;;1.72;94.46;99686.52;1660740;86;21051;-71
2023/02/18 00:49:30;;;;;;;53.30;19.50;;;;;;;1.71;94.60;99685.67;1660638;86;22018;-69
2023/02/18 00:52:00;;;;;;;51.08;19.90;;;;;;;1.73;94.65;99673.36;1660707;86;21471;-68
2023/02/18 00:54:30;;;;;;;55.17;20.15;;;;;;;1.71;94.70;99669.47;1660842;86;21071;-69
2023/02/18 00:56:59;;;;;;;48.23;18.40;;;;;;;1.72;94.82;99654.96;1660644;86;21150;-69
2023/02/18 00:59:28;;;;;;;53.42;19.15;;;;;;;1.73;95.00;99645.01;1660817;86;21578;-69
2023/02/18 01:01:56;;;;;;;50.95;20.82;;;;;;;1.75;95.11;99636.24;1660871;86;21034;-72
2023/02/18 01:04:27;;;;;;;54.38;20.17;;;;;;;1.75;95.20;99630.84;1660692;86;21043;-68
2023/02/18 01:06:56;;;;;;;58.08;20.35;;;;;;;1.75;95.30;99620.89;1660967;86;21459;-66
2023/02/18 01:09:25;;;;;;;56.28;19.67;;;;;;;1.77;95.51;99612.63;1661016;86;21493;-67
2023/02/18 01:11:54;;;;;;;51.48;20.32;;;;;;;1.77;95.62;99604.02;1660673;86;21585;-66
2023/02/18 01:14:24;;;;;;;58.25;20.17;;;;;;;1.79;95.78;99591.70;1660695;86;21451;-68
2023/02/18 01:16:53;;;;;;;60.15;21.20;;;;;;;1.80;95.85;99587.50;1664779;86;21069;-69
2023/02/18 01:19:22;;;;;;;53.08;20.68;;;;;;;1.81;95.89;99578.89;1669556;86;21434;-71
2023/02/18 01:21:50;;;;;;;59.15;22.27;;;;;;;1.81;95.98;99572.14;1669911;86;21118;-65
2023/02/18 01:24:19;;;;;;;59.20;21.35;;;;;;;1.79;96.05;99561.50;1669681;86;21526;-66
2023/02/18 01:26:48;;;;;;;55.25;21.50;;;;;;;1.81;96.18;99545.98;1669735;86;21018;-66
2023/02/18 01:29:17;;;;;;;65.03;21.65;;;;;;;1.81;96.32;99543.28;1645262;86;21043;-66
2023/02/18 01:31:47;;;;;;;60.10;22.75;;;;;;;1.83;96.41;99540.41;1635579;88;21471;-68
2023/02/18 01:34:15;;;;;;;58.42;21.15;;;;;;;1.85;96.54;99522.19;1635392;87;21103;-68
2023/02/18 01:36:44;;;;;;;52.93;20.77;;;;;;;1.85;96.56;99516.79;1635442;88;21067;-68
2023/02/18 01:39:13;;;;;;;57.75;21.65;;;;;;;1.84;96.68;99511.05;1635566;88;22098;-70
2023/02/18 01:41:42;;;;;;;63.58;22.50;;;;;;;1.86;96.77;99503.13;1635256;88;21526;-68
2023/02/18 01:44:19;;;;;;;62.98;23.90;;;;;;;1.85;96.83;99486.58;1635522;88;21600;-69
2023/02/18 01:46:48;;;;;;;48.23;17.07;;;;;;;1.88;96.93;99489.45;1635744;88;21080;-68
2023/02/18 01:49:22;;;;;;;58.33;22.02;;;;;;;1.88;97.05;99474.59;1635387;87;21047;-68
2023/02/18 01:51:55;;;;;;;61.20;22.62;;;;;;;1.88;97.11;99470.05;1635465;88;21035;-66
2023/02/18 01:54:32;;;;;;;57.25;23.05;;;;;;;1.89;97.25;99459.58;1635303;87;21498;-66
2023/02/18 01:57:15;;;;;;;57.03;22.17;;;;;;;1.91;97.39;99452.16;1635566;88;21043;-66
2023/02/18 01:59:48;;;;;;;57.13;21.77;;;;;;;1.93;97.56;99452.49;1635298;87;21062;-64
2023/02/18 02:02:20;;;;;;;59.98;22.05;;;;;;;1.93;97.67;99446.59;1635307;87;21043;-66
2023/02/18 02:04:48;;;;;;;54.38;20.90;;;;;;;1.95;97.78;99439.67;1635466;88;21063;-64
2023/02/18 02:07:18;;;;;;;56.65;22.00;;;;;;;1.97;97.86;99433.12;1635369;88;21561;-65
2023/02/18 02:09:47;;;;;;;56.23;20.97;;;;;;;1.99;97.95;99434.30;1635333;88;21051;-66
2023/02/18 02:12:55;;;;;;;49.15;20.25;;;;;;;1.98;97.97;99425.36;1635399;88;21098;-65
2023/02/18 02:15:50;;;;;;;53.90;20.40;;;;;;;1.98;98.02;99422.66;1635415;88;21079;-66
2023/02/18 02:19:03;;;;;;;50.33;20.20;;;;;;;1.97;98.03;99420.97;1635108;87;21062;-68
2023/02/18 02:22:04;;;;;;;51.30;19.77;;;;;;;1.95;98.07;99406.78;1635481;86;21493;-69
2023/02/18 02:24:51;;;;;;;50.67;19.05;;;;;;;1.93;98.05;99395.27;1635419;87;21079;-68
2023/02/18 02:27:45;;;;;;;48.30;19.50;;;;;;;1.90;98.03;99384.30;1635564;88;21071;-65
2023/02/18 02:30:28;;;;;;;47.90;18.95;;;;;;;1.90;98.05;99379.39;1662785;86;21054;-66
2023/02/18 02:33:28;;;;;;;47.83;18.02;;;;;;;1.89;98.04;99369.09;1665134;86;21678;-67
2023/02/18 02:36:14;;;;;;;44.38;18.40;;;;;;;1.87;98.00;99350.02;1620841;86;21052;-64
2023/02/18 02:39:03;;;;;;;45.45;18.30;;;;;;;1.85;98.03;99352.89;1664953;86;21458;-65
2023/02/18 02:41:41;;;;;;;42.30;17.55;;;;;;;1.85;98.04;99339.89;1664763;86;21254;-66
2023/02/18 02:44:25;;;;;;;41.73;17.85;;;;;;;1.85;98.07;99346.64;1665017;86;21051;-67
2023/02/18 02:46:58;;;;;;;42.60;17.82;;;;;;;1.84;98.16;99335.00;1665107;86;21043;-66
2023/02/18 02:49:47;;;;;;;46.10;17.92;;;;;;;1.83;98.17;99333.81;1664740;86;21042;-67
2023/02/18 02:52:30;;;;;;;43.20;17.40;;;;;;;1.84;98.27;99328.75;1664883;86;21086;-67
2023/02/18 02:54:59;;;;;;;42.33;17.80;;;;;;;1.85;98.34;99324.53;1664701;86;21475;-69
2023/02/18 02:57:33;;;;;;;41.05;18.05;;;;;;;1.88;98.35;99315.25;1665017;86;21046;-68
2023/02/18 03:00:11;;;;;;;42.75;18.73;;;;;;;1.88;98.39;99309.85;1664821;86;21043;-66
2023/02/18 03:03:20;;;;;;;40.63;17.85;;;;;;;1.90;98.46;99302.42;1664911;86;21086;-67
2023/02/18 03:06:34;;;;;;;42.53;16.97;;;;;;;1.91;98.44;99297.36;1656456;86;21055;-66
2023/02/18 03:09:10;;;;;;;44.30;18.80;;;;;;;1.91;98.52;99284.70;1670339;86;21074;-67
2023/02/18 03:11:44;;;;;;;46.93;19.40;;;;;;;1.93;98.61;99287.73;1665253;86;21109;-69
2023/02/18 03:14:24;;;;;;;45.78;19.60;;;;;;;1.91;98.65;99269.00;1662883;86;21090;-66
2023/02/18 03:16:59;;;;;;;42.65;18.77;;;;;;;1.91;98.72;99275.75;1664790;86;21540;-67
2023/02/18 03:19:41;;;;;;;41.75;18.62;;;;;;;1.94;98.77;99270.01;1664860;86;21030;-65
2023/02/18 03:22:26;;;;;;;44.50;18.67;;;;;;;1.94;98.82;99276.77;1665055;86;21090;-67
2023/02/18 03:24:57;;;;;;;43.47;18.70;;;;;;;1.94;98.93;99261.91;1665308;86;21082;-67
2023/02/18 03:27:32;;;;;;;40.90;18.57;;;;;;;1.97;99.01;99255.34;1664799;86;21667;-68
2023/02/18 03:30:21;;;;;;;41.48;17.35;;;;;;;1.97;99.09;99256.20;1664668;86;21126;-66
2023/02/18 03:32:55;;;;;;;49.35;18.50;;;;;;;1.98;99.17;99248.42;1665011;86;21040;-68
2023/02/18 03:35:24;;;;;;;45.12;19.37;;;;;;;1.98;99.23;99229.52;1664999;86;21015;-66
2023/02/18 03:38:15;;;;;;;45.70;18.73;;;;;;;1.98;99.36;99233.57;1669994;86;21043;-69
2023/02/18 03:40:43;;;;;;;45.78;18.82;;;;;;;1.99;99.46;99228.50;1664978;86;21154;-66
2023/02/18 03:43:12;;;;;;;43.28;19.07;;;;;;;2.01;99.56;99230.53;1664940;86;21066;-67
2023/02/18 03:45:42;;;;;;;43.73;18.25;;;;;;;2.03;99.69;99227.14;1664930;86;21612;-65
2023/02/18 03:48:10;;;;;;;44.42;18.98;;;;;;;2.05;99.79;99217.02;1665154;86;21122;-67
2023/02/18 03:50:40;;;;;;;46.77;19.23;;;;;;;2.06;99.87;99206.54;1664922;86;21507;-66
2023/02/18 03:53:10;;;;;;;43.17;18.92;;;;;;;2.10;99.98;99202.98;1664881;86;21150;-68
2023/02/18 03:55:39;;;;;;;39.38;16.55;;;;;;;2.12;100.00;99191.50;1664883;86;21133;-66
2023/02/18 03:58:08;;;;;;;40.23;17.20;;;;;;;2.14;100.00;99187.61;1664844;86;21059;-66
2023/02/18 04:00:38;;;;;;;44.15;17.85;;;;;;;2.13;100.00;99174.27;1664710;86;21737;-67
2023/02/18 04:03:06;;;;;;;44.42;18.60;;;;;;;2.15;100.00;99167.67;1664934;86;21065;-67
2023/02/18 04:05:36;;;;;;;43.60;18.82;;;;;;;2.16;100.00;99163.12;1665140;86;21129;-66
2023/02/18 04:08:05;;;;;;;44.00;18.37;;;;;;;2.17;100.00;99155.34;1665099;86;21046;-67
2023/02/18 04:10:35;;;;;;;41.73;18.77;;;;;;;2.19;100.00;99152.80;1664959;86;21054;-67
2023/02/18 04:13:04;;;;;;;42.20;17.87;;;;;;;2.20;100.00;99153.64;1665064;86;21043;-68
2023/02/18 04:15:33;;;;;;;39.45;17.10;;;;;;;2.21;100.00;99146.72;1664863;86;21497;-66
2023/02/18 04:18:03;;;;;;;39.25;16.27;;;;;;;2.22;100.00;99141.64;1664753;86;21493;-67
2023/02/18 04:20:32;;;;;;;38.95;16.82;;;;;;;2.25;100.00;99131.50;1665040;86;21058;-67
2023/02/18 04:23:03;;;;;;;37.50;16.52;;;;;;;2.22;100.00;99124.08;1664949;86;21066;-67
2023/02/18 04:25:33;;;;;;;36.30;16.40;;;;;;;2.23;100.00;99116.31;1664942;86;21038;-67
2023/02/18 04:28:03;;;;;;;33.83;16.40;;;;;;;2.25;100.00;99108.53;1617323;89;21130;-67
2023/02/18 04:30:32;;;;;;;39.25;17.07;;;;;;;2.25;100.00;99103.13;1599973;88;21518;-66
2023/02/18 04:33:03;;;;;;;34.73;16.52;;;;;;;2.26;100.00;99096.70;1595346;90;21098;-66
2023/02/18 04:35:33;;;;;;;37.05;16.57;;;;;;;2.29;100.00;99104.45;1595161;90;21515;-67
2023/02/18 04:38:03;;;;;;;34.60;15.38;;;;;;;2.30;100.00;99091.28;1595172;90;21104;-67
2023/02/18 04:40:33;;;;;;;35.63;15.45;;;;;;;2.31;100.00;99076.75;1595165;90;21161;-67
2023/02/18 04:43:02;;;;;;;36.83;16.73;;;;;;;2.32;100.00;99077.08;1595105;90;21091;-66
2023/02/18 04:45:31;;;;;;;39.88;16.90;;;;;;;2.33;100.00;99076.06;1604297;87;21186;-67
2023/02/18 04:48:02;;;;;;;37.50;17.02;;;;;;;2.36;100.00;99067.59;1638987;86;21494;-68
2023/02/18 04:50:30;;;;;;;38.20;16.55;;;;;;;2.39;100.00;99065.89;1638846;87;21083;-68
2023/02/18 04:52:59;;;;;;;36.10;15.85;;;;;;;2.41;100.00;99059.80;1638960;86;21651;-67
2023/02/18 04:55:28;;;;;;;36.17;15.93;;;;;;;2.43;100.00;99052.35;1638982;86;21476;-68
2023/02/18 04:57:56;;;;;;;35.45;16.77;;;;;;;2.44;100.00;99047.28;1638802;87;21075;-66
2023/02/18 05:00:27;;;;;;;37.30;16.30;;;;;;;2.45;100.00;99042.20;1638927;87;21458;-68
2023/02/18 05:02:55;;;;;;;34.08;15.48;;;;;;;2.47;100.00;99040.16;1639009;87;21477;-67
2023/02/18 05:05:26;;;;;;;35.15;16.32;;;;;;;2.47;100.00;99048.27;1638908;86;21094;-66
2023/02/18 05:07:54;;;;;;;36.08;15.00;;;;;;;2.50;100.00;99039.80;1638544;87;21035;-65
2023/02/18 05:10:24;;;;;;;32.95;15.03;;;;;;;2.52;100.00;99029.14;1638954;87;21067;-67
2023/02/18 05:12:52;;;;;;;35.85;15.28;;;;;;;2.54;100.00;99022.20;1638917;87;21086;-69
2023/02/18 05:15:21;;;;;;;33.55;14.63;;;;;;;2.56;100.00;99014.75;1638813;87;21079;-67
2023/02/18 05:17:50;;;;;;;29.82;13.88;;;;;;;2.61;100.00;99014.23;1638908;87;21023;-67
2023/02/18 05:20:19;;;;;;;33.78;15.08;;;;;;;2.62;100.00;99001.89;1638952;87;21051;-67
2023/02/18 05:22:49;;;;;;;31.15;14.80;;;;;;;2.64;100.00;98997.14;1638807;86;21121;-67
2023/02/18 05:25:18;;;;;;;32.70;14.65;;;;;;;2.67;100.00;98962.98;1639109;86;21098;-67
2023/02/18 05:27:48;;;;;;;33.05;14.30;;;;;;;2.71;100.00;98976.47;1638851;86;21051;-68
2023/02/18 05:30:17;;;;;;;26.95;13.43;;;;;;;2.76;100.00;98978.11;1636883;86;21015;-68
2023/02/18 05:32:45;;;;;;;28.87;13.80;;;;;;;2.79;100.00;98985.86;1635296;88;21023;-67
2023/02/18 05:35:15;;;;;;;29.65;12.98;;;;;;;2.81;100.00;98978.41;1635313;88;21055;-67
2023/02/18 05:37:44;;;;;;;28.25;13.20;;;;;;;2.82;100.00;98971.97;1635467;88;21472;-67
2023/02/18 05:40:13;;;;;;;28.27;13.58;;;;;;;2.86;100.00;98978.69;1635566;88;21043;-67
2023/02/18 05:42:42;;;;;;;31.25;14.28;;;;;;;2.91;100.00;98975.95;1635364;88;21435;-68
2023/02/18 05:45:10;;;;;;;29.35;13.22;;;;;;;2.93;100.00;98973.90;1635455;88;21027;-68
2023/02/18 05:47:39;;;;;;;29.60;14.35;;;;;;;2.97;100.00;98971.16;1635496;87;22099;-67
2023/02/18 05:50:10;;;;;;;33.45;14.55;;;;;;;2.99;100.00;98964.53;1635471;87;21047;-68
2023/02/18 05:52:40;;;;;;;32.55;14.83;;;;;;;3.02;100.00;98959.27;1635435;88;21503;-68
2023/02/18 05:55:10;;;;;;;28.10;13.48;;;;;;;3.05;100.00;98973.78;1635410;88;21537;-69
2023/02/18 05:57:40;;;;;;;29.35;13.58;;;;;;;3.07;100.00;98952.27;1635287;87;21070;-68
2023/02/18 06:00:10;;;;;;;27.98;13.40;;;;;;;3.13;100.00;98950.70;1635383;88;21035;-65
2023/02/18 06:02:40;;;;;;;27.85;13.05;;;;;;;3.18;100.00;98940.98;1635553;87;21039;-67
2023/02/18 06:05:10;;;;;;;27.50;13.10;;;;;;;3.24;100.00;98942.11;1635233;88;21479;-68
2023/02/18 06:07:39;;;;;;;28.25;12.60;;;;;;;3.30;100.00;98932.44;1635285;88;22196;-68
2023/02/18 06:10:09;;;;;;;26.93;12.33;;;;;;;3.35;100.00;98932.20;1635469;87;21102;-68
2023/02/18 06:12:38;;;;;;;28.10;13.43;;;;;;;3.39;100.00;98941.63;1635269;88;21019;-68
2023/02/18 06:15:08;;;;;;;27.42;12.75;;;;;;;3.44;100.00;98937.84;1635518;88;21085;-68
2023/02/18 06:17:37;;;;;;;24.05;11.85;;;;;;;3.50;100.00;98926.26;1635453;87;21118;-67
2023/02/18 06:20:07;;;;;;;23.98;12.07;;;;;;;3.56;100.00;98927.88;1635540;87;21094;-68
2023/02/18 06:22:36;;;;;;;23.10;11.30;;;;;;;3.60;100.00;98924.61;1635300;87;21079;-69
2023/02/18 06:25:05;;;;;;;21.20;10.70;;;;;;;3.65;100.00;98921.33;1635314;88;21063;-67
2023/02/18 06:27:35;;;;;;;22.70;10.45;;;;;;;3.70;100.00;98921.60;1635347;87;21084;-67
2023/02/18 06:30:06;;;;;;;23.02;10.75;;;;;;;3.76;100.00;98918.97;1635351;86;21171;-69
2023/02/18 06:32:35;;;;;;;23.15;10.15;;;;;;;3.81;100.00;98914.34;1635448;88;21106;-67
2023/02/18 06:35:05;;;;;;;21.25;10.45;;;;;;;3.87;100.00;98914.92;1635452;87;21039;-69
2023/02/18 06:37:35;;;;;;;21.55;10.48;;;;;;;3.94;100.00;98917.74;1635193;87;21122;-68
2023/02/18 06:40:06;;;;;;;19.00;8.93;;;;;;;4.01;100.00;98922.72;1635081;87;21078;-68
2023/02/18 06:42:35;;;;;;;18.45;9.15;;;;;;;4.06;100.00;98921.11;1635317;88;21512;-69
2023/02/18 06:45:05;;;;;;;21.37;9.65;;;;;;;4.14;100.00;98918.79;1635315;88;21503;-69
2023/02/18 06:47:34;;;;;;;16.27;9.10;;;;;;;4.20;100.00;98915.30;1635336;88;21538;-68
2023/02/18 06:50:05;;;;;;;18.15;8.05;;;;;;;4.27;100.00;98916.20;1635438;88;21099;-68
2023/02/18 06:52:36;;;;;;;17.42;8.70;;;;;;;4.35;100.00;98907.11;1635275;87;21016;-69
2023/02/18 06:55:06;;;;;;;13.93;7.92;;;;;;;4.40;100.00;98910.91;1635596;88;21083;-69
2023/02/18 06:57:35;;;;;;;14.80;7.62;;;;;;;4.46;100.00;98906.06;1635598;88;21072;-68
2023/02/18 07:00:05;;;;;;;15.32;8.25;;;;;;;4.56;100.00;98905.77;1635328;88;21449;-68
2023/02/18 07:02:35;;;;;;;14.75;8.03;;;;;;;4.67;100.00;98898.45;1635275;88;21031;-68
2023/02/18 07:05:04;;;;;;;13.13;7.42;;;;;;;4.81;100.00;98899.91;1635434;87;21063;-69
2023/02/18 07:07:33;;;;;;;15.08;7.67;;;;;;;4.91;100.00;98908.53;1635339;88;21047;-68
2023/02/18 07:10:04;;;;;;;12.33;6.70;;;;;;;5.00;100.00;98904.63;1635433;88;21772;-69
2023/02/18 07:12:34;;;;;;;11.68;6.78;;;;;;;5.09;100.00;98897.48;1635181;87;21059;-67
2023/02/18 07:15:04;;;;;;;12.58;7.28;;;;;;;5.16;100.00;98902.95;1635304;88;21460;-67
2023/02/18 07:17:33;;;;;;;12.60;7.28;;;;;;;5.22;100.00;98902.19;1635314;87;21027;-69
2023/02/18 07:20:03;;;;;;;14.00;6.60;;;;;;;5.28;100.00;98899.19;1635418;88;21529;-68
2023/02/18 07:22:32;;;;;;;7.95;4.85;;;;;;;5.30;100.00;98910.69;1635549;88;21631;-67
2023/02/18 07:25:01;;;;;;;11.85;5.55;;;;;;;5.34;100.00;98921.47;1635339;88;21508;-68
2023/02/18 07:27:29;;;;;;;9.55;5.30;;;;;;;5.40;100.00;98922.02;1635413;88;21051;-66
2023/02/18 07:29:58;;;;;;;18.25;6.80;;;;;;;5.47;100.00;98937.00;1639642;86;21125;-68
2023/02/18 07:32:27;;;;;;;9.78;4.83;;;;;;;5.55;100.00;98940.91;1665043;86;21063;-68
2023/02/18 07:34:56;;;;;;;12.65;5.72;;;;;;;5.61;100.00;98946.37;1664829;86;21534;-69
2023/02/18 07:37:25;;;;;;;9.13;4.45;;;;;;;5.68;100.00;98950.48;1664914;86;21438;-68
2023/02/18 07:39:54;;;;;;;6.05;3.37;;;;;;;5.73;100.00;98939.84;1664760;86;21046;-67
2023/02/18 07:42:24;;;;;;;6.12;2.90;;;;;;;5.77;100.00;98939.75;1664960;86;21102;-67
2023/02/18 07:44:52;;;;;;;6.90;2.90;;;;;;;5.79;100.00;98937.67;1664893;86;21497;-68
2023/02/18 07:47:21;;;;;;;7.37;3.27;;;;;;;5.82;100.00;98936.42;1664758;86;21078;-67
2023/02/18 07:49:50;;;;;;;6.00;3.08;;;;;;;5.86;99.86;98945.36;1664977;86;21082;-68
2023/02/18 07:52:18;;;;;;;5.85;2.25;;;;;;;5.91;99.15;98951.06;1665110;86;21963;-69
2023/02/18 07:54:48;;;;;;;5.42;2.20;;;;;;;5.95;98.26;98952.84;1664700;86;21493;-70
2023/02/18 07:57:18;;;;;;;4.33;2.10;;;;;;;5.94;96.55;98942.49;1664795;86;21035;-70
2023/02/18 07:59:46;;;;;;;5.78;2.00;;;;;;;5.95;95.55;98944.17;1664798;86;21057;-69
2023/02/18 08:02:21;;;;;;;6.22;2.27;;;;;;;5.96;94.52;98931.41;1664865;86;21089;-69
2023/02/18 08:04:50;;;;;;;4.92;2.35;;;;;;;5.94;93.42;98930.27;1664915;86;21126;-68
2023/02/18 08:07:19;;;;;;;5.28;2.02;;;;;;;5.94;92.59;98918.55;1664853;86;22579;-70
2023/02/18 08:09:49;;;;;;;4.50;2.35;;;;;;;5.93;92.16;98916.36;1664920;86;21573;-68
2023/02/18 08:12:17;;;;;;;8.50;3.75;;;;;;;5.94;92.07;98912.59;1664750;86;21502;-70
2023/02/18 08:14:47;;;;;;;7.75;2.40;;;;;;;5.95;91.79;98914.27;1664864;86;21074;-70
2023/02/18 08:17:17;;;;;;;13.50;5.30;;;;;;;5.94;91.38;98904.44;1664797;86;21078;-70
2023/02/18 08:19:45;;;;;;;9.70;2.87;;;;;;;5.98;91.25;98904.87;1664550;86;21490;-70
2023/02/18 08:22:14;;;;;;;6.60;2.58;;;;;;;6.03;91.00;98897.77;1664865;86;21466;-71
2023/02/18 08:24:44;;;;;;;8.25;2.77;;;;;;;6.12;90.51;98901.66;1664797;86;21512;-71
2023/02/18 08:27:13;;;;;;;9.33;3.37;;;;;;;6.23;90.11;98904.61;1664787;86;21085;-69
2023/02/18 08:29:42;;;;;;;5.47;2.85;;;;;;;6.34;89.84;98908.08;1664738;86;21105;-70
2023/02/18 08:32:10;;;;;;;6.17;2.08;;;;;;;6.44;89.44;98919.08;1649119;85;21483;-71
2023/02/18 08:34:39;;;;;;;7.75;2.90;;;;;;;6.47;88.80;98920.86;1635588;87;21055;-73
2023/02/18 08:37:08;;;;;;;8.83;2.20;;;;;;;6.52;88.59;98917.55;1635339;88;21777;-70
2023/02/18 08:39:38;;;;;;;9.25;2.40;;;;;;;6.55;87.83;98917.13;1635311;88;21063;-72
2023/02/18 08:42:07;;;;;;;7.33;2.45;;;;;;;6.57;87.87;98915.88;1635551;88;21481;-70
2023/02/18 08:44:38;;;;;;;12.03;3.00;;;;;;;6.59;87.62;98924.67;1635446;88;21099;-72
2023/02/18 08:47:07;;;;;;;7.95;2.70;;;;;;;6.60;87.22;98908.66;1635477;88;21083;-72
2023/02/18 08:49:38;;;;;;;9.13;3.22;;;;;;;6.59;86.74;98914.30;1634164;88;21489;-70
2023/02/18 08:52:07;;;;;;;8.98;3.50;;;;;;;6.57;86.72;98919.95;1635347;87;21127;-70
2023/02/18 08:54:35;;;;;;;5.67;2.40;;;;;;;6.59;86.64;98928.75;1635280;88;21525;-71
2023/02/18 08:57:06;;;;;;;9.30;3.50;;;;;;;6.62;86.59;98919.33;1635282;88;21051;-66
2023/02/18 08:59:36;;;;;;;10.68;4.05;;;;;;;6.68;86.40;98922.58;1635559;88;21471;-71
2023/02/18 09:02:05;;;;;;;16.37;6.15;;;;;;;6.74;86.08;98928.55;1635313;88;21509;-73
2023/02/18 09:04:34;;;;;;;11.15;4.55;;;;;;;6.80;85.99;98918.18;1635485;87;21079;-72
2023/02/18 09:07:03;;;;;;;9.70;4.22;;;;;;;6.86;85.77;98934.20;1635749;88;21543;-71
2023/02/18 09:09:32;;;;;;;5.70;2.20;;;;;;;6.90;85.63;98934.09;1635207;87;21082;-72
2023/02/18 09:12:03;;;;;;;4.90;2.10;;;;;;;6.91;84.74;98928.44;1635300;88;21098;-75
2023/02/18 09:14:31;;;;;;;8.45;2.17;;;;;;;6.94;84.46;98925.81;1635568;87;21463;-74
2023/02/18 09:17:00;;;;;;;4.95;2.40;;;;;;;6.95;84.43;98932.41;1635438;88;21065;-71
2023/02/18 09:19:29;;;;;;;6.15;2.10;;;;;;;6.99;84.26;98930.95;1635246;88;21529;-72
2023/02/18 09:21:58;;;;;;;5.15;2.20;;;;;;;7.00;83.61;98924.97;1635221;88;21455;-72
2023/02/18 09:24:28;;;;;;;7.80;2.37;;;;;;;7.02;83.47;98926.13;1635541;88;21530;-70
2023/02/18 09:26:57;;;;;;;5.75;1.87;;;;;;;7.04;82.81;98930.31;1635596;88;21090;-71
2023/02/18 09:29:25;;;;;;;6.75;2.00;;;;;;;7.03;82.97;98916.38;1635280;88;21468;-69
2023/02/18 09:31:54;;;;;;;6.65;2.35;;;;;;;7.02;83.21;98934.30;1635133;85;21075;-69
2023/02/18 09:34:24;;;;;;;6.65;2.35;;;;;;;6.99;82.42;98931.47;1635694;87;21463;-71
2023/02/18 09:36:52;;;;;;;5.45;2.15;;;;;;;6.96;82.15;98934.61;1635218;87;21023;-70
2023/02/18 09:39:22;;;;;;;5.85;2.25;;;;;;;6.92;82.02;98921.11;1635318;88;21090;-68
2023/02/18 09:41:56;;;;;;;7.75;2.40;;;;;;;6.93;82.19;98936.39;1635528;88;21059;-71
2023/02/18 09:44:34;;;;;;;5.42;2.15;;;;;;;6.93;81.97;98932.31;1635216;88;21055;-70
2023/02/18 09:47:21;;;;;;;6.60;2.35;;;;;;;6.95;82.30;98926.97;1642338;87;21436;-72
2023/02/18 09:49:53;;;;;;;6.70;2.10;;;;;;;6.99;81.32;98921.94;1653309;87;21049;-69
2023/02/18 09:52:28;;;;;;;6.62;2.35;;;;;;;7.03;80.15;98936.80;1653806;87;21088;-69
2023/02/18 09:54:58;;;;;;;5.83;1.70;;;;;;;7.06;79.57;98929.58;1653805;86;21091;-72
2023/02/18 09:57:39;;;;;;;7.65;2.08;;;;;;;7.09;79.75;98931.88;1653779;87;21558;-71
2023/02/18 10:00:18;;;;;;;7.08;2.52;;;;;;;7.11;79.70;98929.78;1616921;88;21405;-71
2023/02/18 10:03:16;;;;;;;5.75;1.98;;;;;;;7.13;79.60;98932.29;1654008;86;21004;-73
2023/02/18 10:06:12;;;;;;;5.42;1.87;;;;;;;7.13;79.07;98923.59;1653961;85;21057;-71
2023/02/18 10:08:46;;;;;;;6.67;1.90;;;;;;;7.14;78.80;98927.16;1653395;86;21546;-72
2023/02/18 10:11:39;;;;;;;5.60;1.72;;;;;;;7.11;77.19;98918.89;1653907;87;21104;-73
2023/02/18 10:14:12;;;;;;;8.35;2.40;;;;;;;7.11;77.32;98928.41;1653733;87;21590;-71
2023/02/18 10:16:42;;;;;;;7.42;2.17;;;;;;;7.13;76.98;98938.58;1653841;87;21020;-70
2023/02/18 10:19:35;;;;;;;4.33;1.60;;;;;;;7.13;77.16;98922.23;1631972;87;21085;-71
2023/02/18 10:22:06;;;;;;;6.17;1.77;;;;;;;7.13;76.65;98914.59;1654041;87;21084;-71
2023/02/18 10:24:39;;;;;;;6.67;1.80;;;;;;;7.17;77.11;98931.69;1653810;87;21029;-72
2023/02/18 10:27:10;;;;;;;4.62;2.10;;;;;;;7.19;77.09;98909.69;1653774;86;21076;-72
2023/02/18 10:29:39;;;;;;;6.97;1.90;;;;;;;7.23;77.47;98919.11;1636952;86;21043;-72
2023/02/18 10:32:27;;;;;;;5.33;1.57;;;;;;;7.23;77.64;98916.38;1637097;86;21098;-71
2023/02/18 10:35:22;;;;;;;6.80;1.75;;;;;;;7.21;76.31;98908.42;1642628;87;21038;-71
2023/02/18 10:38:25;;;;;;;4.50;1.55;;;;;;;7.18;74.59;98915.66;1642469;87;21050;-70
2023/02/18 10:41:17;;;;;;;7.08;1.65;;;;;;;7.15;74.46;98931.06;1642586;87;21078;-70
2023/02/18 10:44:14;;;;;;;7.05;2.02;;;;;;;7.16;74.53;98916.92;1630261;87;21690;-69
2023/02/18 10:47:00;;;;;;;5.40;1.55;;;;;;;7.17;74.87;98922.16;1603074;89;21454;-71
2023/02/18 10:50:12;;;;;;;6.78;2.02;;;;;;;7.17;72.78;98931.69;1606028;89;21474;-71
2023/02/18 10:52:43;;;;;;;5.78;1.95;;;;;;;7.19;73.35;98926.86;1608904;88;21528;-72
2023/02/18 10:55:17;;;;;;;5.08;1.50;;;;;;;7.19;73.34;98929.59;1606096;89;21063;-71
2023/02/18 10:57:50;;;;;;;7.95;1.90;;;;;;;7.22;72.72;98926.44;1608768;89;21122;-69
2023/02/18 11:00:28;;;;;;;6.35;1.72;;;;;;;7.26;72.84;98930.41;1605890;89;21119;-70
2023/02/18 11:03:16;;;;;;;5.53;2.33;;;;;;;7.31;73.07;98920.23;1608953;88;21533;-72
2023/02/18 11:05:46;;;;;;;15.43;5.40;;;;;;;7.35;72.02;98920.13;1605640;89;21098;-70
2023/02/18 11:08:29;;;;;;;17.80;5.85;;;;;;;7.37;72.40;98924.00;1608418;88;21558;-71
2023/02/18 11:10:59;;;;;;;24.92;6.83;;;;;;;7.38;72.84;98924.31;1605894;89;21084;-72
2023/02/18 11:13:30;;;;;;;21.68;6.60;;;;;;;7.39;72.85;98910.48;1608447;89;21576;-71
2023/02/18 11:16:04;;;;;;;24.87;7.70;;;;;;;7.39;72.84;98912.36;1605250;89;21059;-70
2023/02/18 11:18:42;;;;;;;12.63;4.12;;;;;;;7.42;71.87;98906.48;1608486;88;22259;-71
2023/02/18 11:21:33;;;;;;;13.75;4.30;;;;;;;7.42;71.13;98909.21;1605878;89;21532;-69
2023/02/18 11:24:09;;;;;;;6.60;2.02;;;;;;;7.42;70.68;98897.78;1608818;88;21106;-71
2023/02/18 11:26:38;;;;;;;9.40;2.98;;;;;;;7.44;69.04;98905.75;1605855;89;21211;-70
2023/02/18 11:29:20;;;;;;;9.50;3.83;;;;;;;7.48;69.32;98905.63;1608958;89;21053;-70
2023/02/18 11:31:51;;;;;;;3.42;1.60;;;;;;;7.49;68.37;98913.59;1605804;89;21059;-70
2023/02/18 11:34:22;;;;;;;6.62;1.70;;;;;;;7.53;67.25;98912.63;1608670;89;21089;-70
2023/02/18 11:36:51;;;;;;;5.85;1.77;;;;;;;7.56;67.71;98919.02;1605892;89;21099;-72
2023/02/18 11:39:25;;;;;;;6.20;1.75;;;;;;;7.63;66.09;98915.75;1609015;88;21054;-69
2023/02/18 11:42:02;;;;;;;6.67;2.00;;;;;;;7.65;65.37;98919.09;1605779;89;21071;-70
2023/02/18 11:44:38;;;;;;;5.17;1.65;;;;;;;7.67;65.32;98928.41;1608844;88;21732;-70
2023/02/18 11:47:15;;;;;;;6.92;1.65;;;;;;;7.68;65.30;98930.92;1605706;89;21554;-70
2023/02/18 11:50:09;;;;;;;4.70;1.32;;;;;;;7.69;64.79;98929.03;1608728;88;21696;-68
2023/02/18 11:52:44;;;;;;;4.60;1.67;;;;;;;7.67;63.79;98934.70;1605903;89;21094;-70
2023/02/18 11:55:26;;;;;;;4.42;1.32;;;;;;;7.66;63.64;98929.47;1608790;89;21122;-71
2023/02/18 11:58:04;;;;;;;4.53;1.22;;;;;;;7.62;62.79;98913.55;1605672;89;21047;-71